Time,TemperatureF,DewpointF,PressureIn,WindDirection,WindDirectionDegrees,WindSpeedMPH,WindSpeedGustMPH,Humidity,HourlyPrecipIn,Conditions,Clouds,dailyrainin,SoftwareType,DateUTC
2013-07-08 00:01:00,67.0,63.0,-100.00,NE,45,1.0,2.0,86,-99.99,,,-99.99,,2013-07-08 05:01:00,
2013-07-08 00:43:00,65.0,63.0,-100.00,SE,130,0.0,1.0,91,-99.99,,,-99.99,,2013-07-08 05:43:00,
2013-07-08 00:53:00,65.0,63.0,-100.00,SE,130,0.0,1.0,91,-99.99,,,-99.99,,2013-07-08 05:53:00,
2013-07-08 01:01:00,65.0,63.0,-100.00,SE,130,0.0,1.0,91,-99.99,,,-99.99,,2013-07-08 06:01:00,
2013-07-08 01:02:00,65.0,63.0,-100.00,East,90,2.0,2.0,96,-99.99,,,-99.99,,2013-07-08 06:02:00,
2013-07-08 01:43:00,65.0,63.0,-100.00,East,90,2.0,2.0,96,-99.99,,,-99.99,,2013-07-08 06:43:00,
2013-07-08 01:53:00,65.0,63.0,-100.00,East,90,2.0,2.0,96,-99.99,,,-99.99,,2013-07-08 06:53:00,
2013-07-08 02:02:00,64.0,63.0,-100.00,SE,130,2.0,2.0,96,-99.99,,,-99.99,,2013-07-08 07:02:00,
2013-07-08 02:44:00,64.0,63.0,-100.00,SE,130,2.0,2.0,96,-99.99,,,-99.99,,2013-07-08 07:44:00,
2013-07-08 02:53:00,64.0,63.0,-100.00,SE,130,2.0,2.0,96,-99.99,,,-99.99,,2013-07-08 07:53:00,
2013-07-08 03:42:00,65.0,65.0,-100.00,SW,220,1.0,2.0,97,-99.99,,,-99.99,,2013-07-08 08:42:00,
2013-07-08 03:53:00,65.0,65.0,-100.00,SW,220,1.0,2.0,97,-99.99,,,-99.99,,2013-07-08 08:53:00,
2013-07-08 04:01:00,65.0,65.0,-100.00,SW,220,1.0,2.0,97,-99.99,,,-99.99,,2013-07-08 09:01:00,
2013-07-08 04:02:00,67.0,65.0,-100.00,East,100,4.0,4.0,95,-99.99,,,-99.99,,2013-07-08 09:02:00,
2013-07-08 04:34:00,67.0,65.0,-100.00,East,100,4.0,4.0,95,-99.99,,,-99.99,,2013-07-08 09:34:00,
2013-07-08 04:43:00,67.0,65.0,-100.00,East,100,4.0,4.0,95,-99.99,,,-99.99,,2013-07-08 09:43:00,
2013-07-08 04:53:00,67.0,65.0,-100.00,East,100,4.0,4.0,95,-99.99,,,-99.99,,2013-07-08 09:53:00,
2013-07-08 05:02:00,66.0,65.0,-100.00,East,95,4.0,5.0,95,-99.99,,,-99.99,,2013-07-08 10:02:00,
2013-07-08 05:43:00,66.0,65.0,-100.00,East,95,4.0,5.0,95,-99.99,,,-99.99,,2013-07-08 10:43:00,
2013-07-08 05:53:00,66.0,65.0,-100.00,East,95,4.0,5.0,95,-99.99,,,-99.99,,2013-07-08 10:53:00,
2013-07-08 06:43:00,65.0,64.0,-100.00,SSE,165,2.0,3.0,95,-99.99,,,-99.99,,2013-07-08 11:43:00,
2013-07-08 06:53:00,65.0,64.0,-100.00,SSE,165,2.0,3.0,95,-99.99,,,-99.99,,2013-07-08 11:53:00,
2013-07-08 07:01:00,65.0,64.0,-100.00,SSE,165,2.0,3.0,95,-99.99,,,-99.99,,2013-07-08 12:01:00,
2013-07-08 07:02:00,67.0,65.0,-100.00,East,95,4.0,5.0,95,-99.99,,,-99.99,,2013-07-08 12:02:00,
2013-07-08 07:43:00,67.0,65.0,-100.00,East,95,4.0,5.0,95,-99.99,,,-99.99,,2013-07-08 12:43:00,
2013-07-08 07:53:00,67.0,65.0,-100.00,East,95,4.0,5.0,95,-99.99,,,-99.99,,2013-07-08 12:53:00,
2013-07-08 08:02:00,69.0,67.0,-100.00,SE,135,2.0,2.0,93,-99.99,,,-99.99,,2013-07-08 13:02:00,
2013-07-08 08:42:00,69.0,67.0,-100.00,SE,135,2.0,2.0,93,-99.99,,,-99.99,,2013-07-08 13:42:00,
2013-07-08 08:53:00,69.0,67.0,-100.00,SE,135,2.0,2.0,93,-99.99,,,-99.99,,2013-07-08 13:53:00,
2013-07-08 09:02:00,73.0,64.0,-100.00,South,175,9.0,12.0,73,-99.99,,,-99.99,,2013-07-08 14:02:00,
2013-07-08 09:43:00,73.0,64.0,-100.00,South,175,9.0,12.0,73,-99.99,,,-99.99,,2013-07-08 14:43:00,
2013-07-08 09:53:00,73.0,64.0,-100.00,South,175,9.0,12.0,73,-99.99,,,-99.99,,2013-07-08 14:53:00,
2013-07-08 10:33:00,77.0,63.0,-100.00,South,180,4.0,6.0,61,-99.99,,,-99.99,,2013-07-08 15:33:00,
2013-07-08 10:43:00,77.0,63.0,-100.00,South,180,4.0,6.0,61,-99.99,,,-99.99,,2013-07-08 15:43:00,
2013-07-08 10:53:00,77.0,63.0,-100.00,South,180,4.0,6.0,61,-99.99,,,-99.99,,2013-07-08 15:53:00,
2013-07-08 11:01:00,77.0,63.0,-100.00,South,180,4.0,6.0,61,-99.99,,,-99.99,,2013-07-08 16:01:00,
2013-07-08 11:43:00,80.0,64.0,-100.00,SSE,150,2.0,4.0,58,-99.99,,,-99.99,,2013-07-08 16:43:00,
2013-07-08 11:57:00,80.0,64.0,-100.00,SSE,150,2.0,4.0,58,-99.99,,,-99.99,,2013-07-08 16:57:00,
2013-07-08 12:48:00,80.0,68.0,-100.00,SSW,205,5.0,7.0,67,-99.99,,,-99.99,,2013-07-08 17:48:00,
2013-07-08 12:55:00,80.0,68.0,-100.00,SSW,205,5.0,7.0,67,-99.99,,,-99.99,,2013-07-08 17:55:00,
2013-07-08 14:02:00,86.0,72.0,-100.00,South,175,5.0,8.0,63,-99.99,,,-99.99,,2013-07-08 19:02:00,
2013-07-08 15:02:00,86.0,71.0,-100.00,SSW,205,5.0,11.0,60,-99.99,,,-99.99,,2013-07-08 20:02:00,
2013-07-08 15:55:00,86.0,71.0,-100.00,SSW,205,5.0,11.0,60,-99.99,,,-99.99,,2013-07-08 20:55:00,
2013-07-08 16:02:00,89.0,69.0,-100.00,WSW,255,4.0,6.0,53,-99.99,,,-99.99,,2013-07-08 21:02:00,
2013-07-08 16:56:00,89.0,69.0,-100.00,WSW,255,4.0,6.0,53,-99.99,,,-99.99,,2013-07-08 21:56:00,
2013-07-08 17:02:00,88.0,68.0,-100.00,SSW,205,6.0,7.0,51,-99.99,,,-99.99,,2013-07-08 22:02:00,
2013-07-08 17:59:00,88.0,68.0,-100.00,SSW,205,6.0,7.0,51,-99.99,,,-99.99,,2013-07-08 22:59:00,
2013-07-08 18:02:00,88.0,69.0,-100.00,WSW,240,6.0,8.0,52,-99.99,,,-99.99,,2013-07-08 23:02:00,
2013-07-08 18:59:00,88.0,69.0,-100.00,WSW,240,6.0,8.0,52,-99.99,,,-99.99,,2013-07-08 23:59:00,
2013-07-08 20:02:00,-999.0,-99.9,-100.00,South,180,2.0,4.0,56,-99.99,,,-99.99,,2013-07-09 01:02:00,
2013-07-08 21:00:00,86.0,69.0,-100.00,South,180,2.0,4.0,56,-99.99,,,-99.99,,2013-07-09 02:00:00,
2013-07-08 21:02:00,81.0,71.0,-100.00,SE,145,4.0,6.0,71,-99.99,,,-99.99,,2013-07-09 02:02:00,
2013-07-08 21:49:00,81.0,71.0,-100.00,SE,145,4.0,6.0,71,-99.99,,,-99.99,,2013-07-09 02:49:00,
2013-07-08 22:00:00,81.0,71.0,-100.00,SE,145,4.0,6.0,71,-99.99,,,-99.99,,2013-07-09 03:00:00,
2013-07-08 22:02:00,79.0,72.0,-100.00,SSE,155,0.0,0.0,81,-99.99,,,-99.99,,2013-07-09 03:02:00,
2013-07-08 23:02:00,65.0,64.0,-100.00,North,0,11.0,15.0,95,-99.99,,,-99.99,,2013-07-09 04:02:00,
2013-07-08 23:43:00,65.0,64.0,-100.00,North,0,11.0,15.0,95,-99.99,,,-99.99,,2013-07-09 04:43:00,
2013-07-08 23:53:00,65.0,64.0,-100.00,North,0,11.0,15.0,95,-99.99,,,-99.99,,2013-07-09 04:53:00,